GB-0126 weather

CLOSED RAF Bognor
West Sussex, England, United Kingdom

Public forecast

Using degrees Celsius for public forecast. Weather courtesy of forecast.io.

METAR (pilot weather report)

Closest report is Shoreham Airport, 15.6 nm (28.8 km) E. Retrieved 2018/07/18 15:20 UTC (15 minutes ago):

EGKA 181520Z 20009KT 9999 FEW035 21/13 Q1019

TAF (pilot weather forecast)

Forecast is more than 12 hours old.

Closest forecast is Shoreham Airport, 15.6 nm (28.8 km) E. Retrieved 2016/03/02 12:00 UTC (2 years ago):

TAF EGKA 021104Z 0212/0221 25015G25KT 9999 SCT020 TEMPO 0212/0216 25025G38KT 5000 SHRA BKN012CB PROB30 TEMPO 0212/0215 2500 +SHGS +SHRASN TEMPO 0216/0221 29025G35KT TEMPO 0218/0221 BKN014